sensor_id;sensor_type;location;lat;lon;timestamp;P1;durP1;ratioP1;P2;durP2;ratioP2
64643;SDS011;51056;50.330;7.914;2024-01-06T00:18:27;6.63;;;1.45;;
64643;SDS011;51056;50.330;7.914;2024-01-06T00:21:31;4.68;;;1.10;;
64643;SDS011;51056;50.330;7.914;2024-01-06T00:24:35;5.72;;;2.88;;
64643;SDS011;51056;50.330;7.914;2024-01-06T00:27:38;7.75;;;1.83;;
64643;SDS011;51056;50.330;7.914;2024-01-06T00:30:42;6.55;;;1.73;;
64643;SDS011;51056;50.330;7.914;2024-01-06T00:33:45;4.50;;;1.35;;
64643;SDS011;51056;50.330;7.914;2024-01-06T00:36:48;4.40;;;1.15;;
64643;SDS011;51056;50.330;7.914;2024-01-06T00:39:52;3.97;;;1.10;;
64643;SDS011;51056;50.330;7.914;2024-01-06T00:42:55;6.53;;;1.05;;
64643;SDS011;51056;50.330;7.914;2024-01-06T00:49:02;5.47;;;1.38;;
64643;SDS011;51056;50.330;7.914;2024-01-06T00:52:06;3.17;;;0.68;;
64643;SDS011;51056;50.330;7.914;2024-01-06T00:55:09;5.30;;;1.00;;
64643;SDS011;51056;50.330;7.914;2024-01-06T00:58:13;5.13;;;1.08;;
64643;SDS011;51056;50.330;7.914;2024-01-06T01:01:16;3.20;;;1.30;;
64643;SDS011;51056;50.330;7.914;2024-01-06T01:04:21;5.50;;;1.10;;
64643;SDS011;51056;50.330;7.914;2024-01-06T01:10:29;3.20;;;0.80;;
64643;SDS011;51056;50.330;7.914;2024-01-06T01:13:33;7.15;;;1.17;;
64643;SDS011;51056;50.330;7.914;2024-01-06T01:19:39;4.13;;;0.85;;
64643;SDS011;51056;50.330;7.914;2024-01-06T01:25:45;3.93;;;1.30;;
64643;SDS011;51056;50.330;7.914;2024-01-06T01:28:51;6.13;;;1.52;;
64643;SDS011;51056;50.330;7.914;2024-01-06T01:31:55;3.80;;;1.08;;
64643;SDS011;51056;50.330;7.914;2024-01-06T01:35:00;3.15;;;0.73;;
64643;SDS011;51056;50.330;7.914;2024-01-06T01:38:06;4.63;;;1.27;;
64643;SDS011;51056;50.330;7.914;2024-01-06T01:41:12;3.17;;;0.85;;
64643;SDS011;51056;50.330;7.914;2024-01-06T01:44:17;3.92;;;0.77;;
64643;SDS011;51056;50.330;7.914;2024-01-06T01:47:21;1.98;;;0.52;;
64643;SDS011;51056;50.330;7.914;2024-01-06T01:50:26;7.93;;;1.10;;
64643;SDS011;51056;50.330;7.914;2024-01-06T01:53:31;2.88;;;0.60;;
64643;SDS011;51056;50.330;7.914;2024-01-06T01:56:34;5.10;;;0.90;;
64643;SDS011;51056;50.330;7.914;2024-01-06T01:59:39;4.90;;;0.82;;
64643;SDS011;51056;50.330;7.914;2024-01-06T02:02:42;7.03;;;0.80;;
64643;SDS011;51056;50.330;7.914;2024-01-06T02:08:48;4.55;;;0.90;;
64643;SDS011;51056;50.330;7.914;2024-01-06T02:14:55;4.20;;;0.80;;
64643;SDS011;51056;50.330;7.914;2024-01-06T02:17:58;5.95;;;1.73;;
64643;SDS011;51056;50.330;7.914;2024-01-06T02:21:02;5.93;;;0.90;;
64643;SDS011;51056;50.330;7.914;2024-01-06T02:24:05;4.50;;;0.90;;
64643;SDS011;51056;50.330;7.914;2024-01-06T02:30:11;4.53;;;1.00;;
64643;SDS011;51056;50.330;7.914;2024-01-06T02:33:15;5.38;;;0.98;;
64643;SDS011;51056;50.330;7.914;2024-01-06T02:39:21;4.88;;;1.33;;
64643;SDS011;51056;50.330;7.914;2024-01-06T02:42:26;6.80;;;1.05;;
64643;SDS011;51056;50.330;7.914;2024-01-06T02:45:30;2.92;;;0.68;;
64643;SDS011;51056;50.330;7.914;2024-01-06T02:51:36;2.13;;;0.70;;
64643;SDS011;51056;50.330;7.914;2024-01-06T02:57:43;3.45;;;0.98;;
64643;SDS011;51056;50.330;7.914;2024-01-06T03:03:49;3.45;;;0.82;;
64643;SDS011;51056;50.330;7.914;2024-01-06T03:12:59;4.75;;;1.00;;
64643;SDS011;51056;50.330;7.914;2024-01-06T03:16:03;7.70;;;1.65;;
64643;SDS011;51056;50.330;7.914;2024-01-06T03:24:24;4.93;;;1.20;;
64643;SDS011;51056;50.330;7.914;2024-01-06T03:27:30;5.97;;;1.45;;
64643;SDS011;51056;50.330;7.914;2024-01-06T03:30:34;6.35;;;1.73;;
64643;SDS011;51056;50.330;7.914;2024-01-06T03:33:38;4.78;;;1.30;;
64643;SDS011;51056;50.330;7.914;2024-01-06T03:39:44;4.25;;;1.25;;
64643;SDS011;51056;50.330;7.914;2024-01-06T03:42:47;4.97;;;1.20;;
64643;SDS011;51056;50.330;7.914;2024-01-06T03:45:51;4.63;;;0.90;;
64643;SDS011;51056;50.330;7.914;2024-01-06T03:48:54;5.03;;;1.15;;
64643;SDS011;51056;50.330;7.914;2024-01-06T03:51:57;4.82;;;1.08;;
64643;SDS011;51056;50.330;7.914;2024-01-06T03:55:01;2.00;;;0.65;;
64643;SDS011;51056;50.330;7.914;2024-01-06T03:58:05;5.85;;;0.93;;
64643;SDS011;51056;50.330;7.914;2024-01-06T04:01:09;6.10;;;1.42;;
64643;SDS011;51056;50.330;7.914;2024-01-06T04:04:12;3.67;;;1.20;;
64643;SDS011;51056;50.330;7.914;2024-01-06T04:07:15;6.80;;;1.20;;
64643;SDS011;51056;50.330;7.914;2024-01-06T04:10:19;8.80;;;1.83;;
64643;SDS011;51056;50.330;7.914;2024-01-06T04:13:22;7.30;;;2.05;;
64643;SDS011;51056;50.330;7.914;2024-01-06T04:16:30;3.92;;;1.20;;
64643;SDS011;51056;50.330;7.914;2024-01-06T04:19:33;3.30;;;1.00;;
64643;SDS011;51056;50.330;7.914;2024-01-06T04:25:40;5.65;;;1.20;;
64643;SDS011;51056;50.330;7.914;2024-01-06T04:28:43;3.65;;;1.13;;
64643;SDS011;51056;50.330;7.914;2024-01-06T04:34:49;5.80;;;1.88;;
64643;SDS011;51056;50.330;7.914;2024-01-06T04:37:53;3.80;;;0.90;;
64643;SDS011;51056;50.330;7.914;2024-01-06T04:40:56;3.45;;;0.98;;
64643;SDS011;51056;50.330;7.914;2024-01-06T04:44:00;4.97;;;1.48;;
64643;SDS011;51056;50.330;7.914;2024-01-06T04:47:03;4.90;;;1.10;;
64643;SDS011;51056;50.330;7.914;2024-01-06T04:50:07;3.05;;;1.15;;
64643;SDS011;51056;50.330;7.914;2024-01-06T04:53:10;3.95;;;1.00;;
64643;SDS011;51056;50.330;7.914;2024-01-06T04:56:13;5.50;;;1.30;;
64643;SDS011;51056;50.330;7.914;2024-01-06T04:59:16;4.82;;;1.08;;
64643;SDS011;51056;50.330;7.914;2024-01-06T05:05:23;3.42;;;1.00;;
64643;SDS011;51056;50.330;7.914;2024-01-06T05:08:27;4.45;;;1.00;;
64643;SDS011;51056;50.330;7.914;2024-01-06T05:11:33;2.38;;;0.90;;
64643;SDS011;51056;50.330;7.914;2024-01-06T05:17:39;4.47;;;3.15;;
64643;SDS011;51056;50.330;7.914;2024-01-06T05:20:42;13.50;;;8.30;;
64643;SDS011;51056;50.330;7.914;2024-01-06T05:31:58;5.18;;;1.17;;
64643;SDS011;51056;50.330;7.914;2024-01-06T05:38:05;6.13;;;1.55;;
64643;SDS011;51056;50.330;7.914;2024-01-06T05:44:11;5.00;;;1.60;;
64643;SDS011;51056;50.330;7.914;2024-01-06T05:47:14;5.32;;;0.98;;
64643;SDS011;51056;50.330;7.914;2024-01-06T05:50:17;4.82;;;0.80;;
64643;SDS011;51056;50.330;7.914;2024-01-06T05:53:21;2.33;;;1.08;;
64643;SDS011;51056;50.330;7.914;2024-01-06T05:59:28;3.65;;;0.95;;
64643;SDS011;51056;50.330;7.914;2024-01-06T06:02:31;2.60;;;0.90;;
64643;SDS011;51056;50.330;7.914;2024-01-06T06:05:35;2.95;;;0.73;;
64643;SDS011;51056;50.330;7.914;2024-01-06T06:08:40;1.58;;;0.52;;
64643;SDS011;51056;50.330;7.914;2024-01-06T06:11:45;4.38;;;1.85;;
64643;SDS011;51056;50.330;7.914;2024-01-06T06:14:48;3.08;;;0.93;;
64643;SDS011;51056;50.330;7.914;2024-01-06T06:17:51;7.25;;;2.30;;
64643;SDS011;51056;50.330;7.914;2024-01-06T06:23:58;3.60;;;0.80;;
64643;SDS011;51056;50.330;7.914;2024-01-06T06:30:04;6.70;;;0.90;;
64643;SDS011;51056;50.330;7.914;2024-01-06T06:33:08;2.25;;;0.70;;
64643;SDS011;51056;50.330;7.914;2024-01-06T06:36:12;3.60;;;1.02;;
64643;SDS011;51056;50.330;7.914;2024-01-06T06:42:18;5.32;;;1.02;;
64643;SDS011;51056;50.330;7.914;2024-01-06T06:45:21;2.10;;;0.73;;
64643;SDS011;51056;50.330;7.914;2024-01-06T06:48:25;5.93;;;1.17;;
64643;SDS011;51056;50.330;7.914;2024-01-06T06:51:29;4.00;;;1.58;;
64643;SDS011;51056;50.330;7.914;2024-01-06T06:55:43;2.90;;;0.77;;
64643;SDS011;51056;50.330;7.914;2024-01-06T06:58:46;3.17;;;0.60;;
64643;SDS011;51056;50.330;7.914;2024-01-06T07:01:49;5.13;;;1.48;;
64643;SDS011;51056;50.330;7.914;2024-01-06T07:07:56;6.47;;;2.33;;
64643;SDS011;51056;50.330;7.914;2024-01-06T07:10:59;3.55;;;1.20;;
64643;SDS011;51056;50.330;7.914;2024-01-06T07:17:05;4.30;;;1.58;;
64643;SDS011;51056;50.330;7.914;2024-01-06T07:23:12;4.05;;;1.52;;
64643;SDS011;51056;50.330;7.914;2024-01-06T07:29:19;2.50;;;0.98;;
64643;SDS011;51056;50.330;7.914;2024-01-06T07:35:26;2.35;;;0.82;;
64643;SDS011;51056;50.330;7.914;2024-01-06T07:38:29;4.20;;;1.00;;
64643;SDS011;51056;50.330;7.914;2024-01-06T07:41:33;5.13;;;2.25;;
64643;SDS011;51056;50.330;7.914;2024-01-06T07:44:37;3.45;;;1.70;;
64643;SDS011;51056;50.330;7.914;2024-01-06T07:47:40;3.40;;;1.50;;
64643;SDS011;51056;50.330;7.914;2024-01-06T07:50:46;6.03;;;1.48;;
64643;SDS011;51056;50.330;7.914;2024-01-06T07:56:56;4.10;;;1.52;;
64643;SDS011;51056;50.330;7.914;2024-01-06T08:00:02;4.25;;;1.40;;
64643;SDS011;51056;50.330;7.914;2024-01-06T08:03:15;4.38;;;1.25;;
64643;SDS011;51056;50.330;7.914;2024-01-06T08:06:19;2.67;;;0.80;;
64643;SDS011;51056;50.330;7.914;2024-01-06T08:09:24;2.65;;;0.90;;
64643;SDS011;51056;50.330;7.914;2024-01-06T08:15:31;9.30;;;3.53;;
64643;SDS011;51056;50.330;7.914;2024-01-06T08:18:35;19.15;;;9.43;;
64643;SDS011;51056;50.330;7.914;2024-01-06T08:21:38;9.82;;;4.35;;
64643;SDS011;51056;50.330;7.914;2024-01-06T08:24:42;7.00;;;2.90;;
64643;SDS011;51056;50.330;7.914;2024-01-06T08:27:45;6.20;;;2.30;;
64643;SDS011;51056;50.330;7.914;2024-01-06T08:30:49;5.47;;;1.33;;
64643;SDS011;51056;50.330;7.914;2024-01-06T08:33:52;6.05;;;2.38;;
64643;SDS011;51056;50.330;7.914;2024-01-06T08:39:58;3.92;;;0.85;;
64643;SDS011;51056;50.330;7.914;2024-01-06T08:43:02;4.80;;;1.00;;
64643;SDS011;51056;50.330;7.914;2024-01-06T08:46:06;2.80;;;0.70;;
64643;SDS011;51056;50.330;7.914;2024-01-06T08:49:09;4.38;;;0.90;;
64643;SDS011;51056;50.330;7.914;2024-01-06T08:52:13;3.22;;;0.80;;
64643;SDS011;51056;50.330;7.914;2024-01-06T08:55:16;4.28;;;0.80;;
64643;SDS011;51056;50.330;7.914;2024-01-06T09:01:23;5.45;;;3.10;;
64643;SDS011;51056;50.330;7.914;2024-01-06T09:04:26;3.67;;;2.20;;
64643;SDS011;51056;50.330;7.914;2024-01-06T09:07:31;3.72;;;1.60;;
64643;SDS011;51056;50.330;7.914;2024-01-06T09:13:37;10.15;;;5.75;;
64643;SDS011;51056;50.330;7.914;2024-01-06T09:16:44;13.20;;;8.07;;
64643;SDS011;51056;50.330;7.914;2024-01-06T09:19:47;9.45;;;7.25;;
64643;SDS011;51056;50.330;7.914;2024-01-06T09:22:51;21.77;;;14.98;;
64643;SDS011;51056;50.330;7.914;2024-01-06T09:25:54;7.45;;;6.07;;
64643;SDS011;51056;50.330;7.914;2024-01-06T09:28:58;11.93;;;5.45;;
64643;SDS011;51056;50.330;7.914;2024-01-06T09:32:01;8.68;;;5.35;;
64643;SDS011;51056;50.330;7.914;2024-01-06T09:35:05;5.68;;;4.05;;
64643;SDS011;51056;50.330;7.914;2024-01-06T09:38:08;9.05;;;5.75;;
64643;SDS011;51056;50.330;7.914;2024-01-06T09:44:14;6.32;;;3.10;;
64643;SDS011;51056;50.330;7.914;2024-01-06T09:47:18;6.47;;;3.70;;
64643;SDS011;51056;50.330;7.914;2024-01-06T09:50:21;5.60;;;3.33;;
64643;SDS011;51056;50.330;7.914;2024-01-06T09:53:26;6.50;;;3.80;;
64643;SDS011;51056;50.330;7.914;2024-01-06T09:56:36;6.53;;;3.95;;
64643;SDS011;51056;50.330;7.914;2024-01-06T09:59:39;5.35;;;3.45;;
64643;SDS011;51056;50.330;7.914;2024-01-06T10:06:23;5.47;;;2.75;;
64643;SDS011;51056;50.330;7.914;2024-01-06T10:09:28;9.65;;;5.30;;
64643;SDS011;51056;50.330;7.914;2024-01-06T10:12:31;11.52;;;8.02;;
64643;SDS011;51056;50.330;7.914;2024-01-06T10:15:35;11.55;;;5.75;;
64643;SDS011;51056;50.330;7.914;2024-01-06T10:18:39;5.55;;;3.58;;
64643;SDS011;51056;50.330;7.914;2024-01-06T10:27:49;60.58;;;45.13;;
64643;SDS011;51056;50.330;7.914;2024-01-06T10:30:53;46.58;;;29.90;;
64643;SDS011;51056;50.330;7.914;2024-01-06T10:33:57;57.03;;;35.47;;
64643;SDS011;51056;50.330;7.914;2024-01-06T10:40:08;38.05;;;21.10;;
64643;SDS011;51056;50.330;7.914;2024-01-06T10:43:15;89.25;;;47.22;;
64643;SDS011;51056;50.330;7.914;2024-01-06T10:46:19;68.30;;;37.88;;
64643;SDS011;51056;50.330;7.914;2024-01-06T10:52:27;25.45;;;13.55;;
64643;SDS011;51056;50.330;7.914;2024-01-06T10:55:31;28.35;;;16.02;;
64643;SDS011;51056;50.330;7.914;2024-01-06T10:58:35;3.88;;;2.20;;
64643;SDS011;51056;50.330;7.914;2024-01-06T11:01:45;3.38;;;1.63;;
64643;SDS011;51056;50.330;7.914;2024-01-06T11:04:50;16.95;;;14.95;;
64643;SDS011;51056;50.330;7.914;2024-01-06T11:07:53;16.02;;;13.85;;
64643;SDS011;51056;50.330;7.914;2024-01-06T11:11:02;17.02;;;14.45;;
64643;SDS011;51056;50.330;7.914;2024-01-06T11:14:17;22.40;;;14.10;;
64643;SDS011;51056;50.330;7.914;2024-01-06T11:17:55;14.40;;;12.90;;
64643;SDS011;51056;50.330;7.914;2024-01-06T11:21:19;15.30;;;12.93;;
64643;SDS011;51056;50.330;7.914;2024-01-06T11:29:09;14.75;;;12.30;;
64643;SDS011;51056;50.330;7.914;2024-01-06T11:32:16;14.77;;;12.20;;
64643;SDS011;51056;50.330;7.914;2024-01-06T11:35:22;33.50;;;14.15;;
64643;SDS011;51056;50.330;7.914;2024-01-06T11:38:26;16.73;;;12.32;;
64643;SDS011;51056;50.330;7.914;2024-01-06T11:41:48;14.43;;;11.30;;
64643;SDS011;51056;50.330;7.914;2024-01-06T11:44:56;14.52;;;12.10;;
64643;SDS011;51056;50.330;7.914;2024-01-06T11:48:07;14.60;;;11.63;;
64643;SDS011;51056;50.330;7.914;2024-01-06T11:51:11;13.93;;;11.55;;
64643;SDS011;51056;50.330;7.914;2024-01-06T11:54:15;13.20;;;10.77;;
64643;SDS011;51056;50.330;7.914;2024-01-06T11:57:19;13.40;;;10.85;;
64643;SDS011;51056;50.330;7.914;2024-01-06T12:03:25;12.88;;;9.80;;
64643;SDS011;51056;50.330;7.914;2024-01-06T12:06:29;14.02;;;9.32;;
64643;SDS011;51056;50.330;7.914;2024-01-06T12:09:33;13.18;;;10.63;;
64643;SDS011;51056;50.330;7.914;2024-01-06T12:12:37;15.88;;;11.00;;
64643;SDS011;51056;50.330;7.914;2024-01-06T12:18:43;14.60;;;10.55;;
64643;SDS011;51056;50.330;7.914;2024-01-06T12:24:50;13.80;;;9.97;;
64643;SDS011;51056;50.330;7.914;2024-01-06T12:27:53;14.43;;;9.18;;
64643;SDS011;51056;50.330;7.914;2024-01-06T12:30:59;13.00;;;10.07;;
64643;SDS011;51056;50.330;7.914;2024-01-06T12:34:03;11.07;;;9.15;;
64643;SDS011;51056;50.330;7.914;2024-01-06T12:37:07;13.20;;;10.05;;
64643;SDS011;51056;50.330;7.914;2024-01-06T12:40:14;13.68;;;10.20;;
64643;SDS011;51056;50.330;7.914;2024-01-06T12:43:19;12.77;;;9.63;;
64643;SDS011;51056;50.330;7.914;2024-01-06T12:49:26;10.48;;;9.15;;
64643;SDS011;51056;50.330;7.914;2024-01-06T12:55:33;11.65;;;8.90;;
64643;SDS011;51056;50.330;7.914;2024-01-06T13:01:41;10.77;;;8.43;;
64643;SDS011;51056;50.330;7.914;2024-01-06T13:04:45;13.68;;;9.00;;
64643;SDS011;51056;50.330;7.914;2024-01-06T13:07:49;9.02;;;7.85;;
64643;SDS011;51056;50.330;7.914;2024-01-06T13:13:56;6.97;;;5.97;;
64643;SDS011;51056;50.330;7.914;2024-01-06T13:17:04;7.95;;;5.38;;
64643;SDS011;51056;50.330;7.914;2024-01-06T13:20:09;8.35;;;6.10;;
64643;SDS011;51056;50.330;7.914;2024-01-06T13:23:12;8.15;;;5.43;;
64643;SDS011;51056;50.330;7.914;2024-01-06T13:26:16;8.70;;;5.78;;
64643;SDS011;51056;50.330;7.914;2024-01-06T13:32:22;8.38;;;6.72;;
64643;SDS011;51056;50.330;7.914;2024-01-06T13:41:32;3.95;;;2.65;;
64643;SDS011;51056;50.330;7.914;2024-01-06T13:47:38;5.38;;;3.42;;
64643;SDS011;51056;50.330;7.914;2024-01-06T13:50:47;5.13;;;3.45;;
64643;SDS011;51056;50.330;7.914;2024-01-06T13:56:53;4.38;;;2.60;;
64643;SDS011;51056;50.330;7.914;2024-01-06T14:03:00;3.38;;;2.42;;
64643;SDS011;51056;50.330;7.914;2024-01-06T14:06:04;3.70;;;2.03;;
64643;SDS011;51056;50.330;7.914;2024-01-06T14:09:09;3.95;;;2.33;;
64643;SDS011;51056;50.330;7.914;2024-01-06T14:12:18;3.50;;;2.00;;
64643;SDS011;51056;50.330;7.914;2024-01-06T14:15:21;3.47;;;2.28;;
64643;SDS011;51056;50.330;7.914;2024-01-06T14:18:25;3.90;;;2.80;;
64643;SDS011;51056;50.330;7.914;2024-01-06T14:21:31;4.72;;;3.88;;
64643;SDS011;51056;50.330;7.914;2024-01-06T14:24:34;4.38;;;3.08;;
64643;SDS011;51056;50.330;7.914;2024-01-06T14:27:39;3.75;;;2.78;;
64643;SDS011;51056;50.330;7.914;2024-01-06T14:30:50;5.32;;;3.95;;
64643;SDS011;51056;50.330;7.914;2024-01-06T14:36:58;6.57;;;4.55;;
64643;SDS011;51056;50.330;7.914;2024-01-06T14:40:02;6.88;;;6.10;;
64643;SDS011;51056;50.330;7.914;2024-01-06T14:43:08;7.15;;;6.32;;
64643;SDS011;51056;50.330;7.914;2024-01-06T14:46:20;7.10;;;5.80;;
64643;SDS011;51056;50.330;7.914;2024-01-06T14:49:52;5.97;;;5.03;;
64643;SDS011;51056;50.330;7.914;2024-01-06T14:55:58;6.03;;;4.57;;
64643;SDS011;51056;50.330;7.914;2024-01-06T14:59:03;6.55;;;5.00;;
64643;SDS011;51056;50.330;7.914;2024-01-06T15:02:11;7.65;;;5.22;;
64643;SDS011;51056;50.330;7.914;2024-01-06T15:05:16;6.63;;;4.40;;
64643;SDS011;51056;50.330;7.914;2024-01-06T15:11:22;6.45;;;4.47;;
64643;SDS011;51056;50.330;7.914;2024-01-06T15:14:26;4.40;;;3.70;;
64643;SDS011;51056;50.330;7.914;2024-01-06T15:17:29;5.10;;;4.20;;
64643;SDS011;51056;50.330;7.914;2024-01-06T15:20:35;7.53;;;6.00;;
64643;SDS011;51056;50.330;7.914;2024-01-06T15:23:39;7.90;;;6.60;;
64643;SDS011;51056;50.330;7.914;2024-01-06T15:32:49;8.10;;;7.05;;
64643;SDS011;51056;50.330;7.914;2024-01-06T15:35:52;8.40;;;7.07;;
64643;SDS011;51056;50.330;7.914;2024-01-06T15:41:59;11.68;;;9.75;;
64643;SDS011;51056;50.330;7.914;2024-01-06T15:45:06;9.35;;;6.78;;
64643;SDS011;51056;50.330;7.914;2024-01-06T15:48:09;44.42;;;18.40;;
64643;SDS011;51056;50.330;7.914;2024-01-06T15:51:13;11.48;;;6.80;;
64643;SDS011;51056;50.330;7.914;2024-01-06T15:54:20;7.25;;;5.43;;
64643;SDS011;51056;50.330;7.914;2024-01-06T15:57:27;10.88;;;6.10;;
64643;SDS011;51056;50.330;7.914;2024-01-06T16:00:32;7.35;;;5.18;;
64643;SDS011;51056;50.330;7.914;2024-01-06T16:03:36;8.43;;;5.78;;
64643;SDS011;51056;50.330;7.914;2024-01-06T16:06:39;120.93;;;41.72;;
64643;SDS011;51056;50.330;7.914;2024-01-06T16:09:43;21.13;;;9.57;;
64643;SDS011;51056;50.330;7.914;2024-01-06T16:12:57;10.88;;;7.82;;
64643;SDS011;51056;50.330;7.914;2024-01-06T16:16:02;7.88;;;5.97;;
64643;SDS011;51056;50.330;7.914;2024-01-06T16:22:10;13.68;;;11.98;;
64643;SDS011;51056;50.330;7.914;2024-01-06T16:25:14;7.03;;;5.43;;
64643;SDS011;51056;50.330;7.914;2024-01-06T16:28:20;6.25;;;4.85;;
64643;SDS011;51056;50.330;7.914;2024-01-06T16:31:27;5.20;;;4.03;;
64643;SDS011;51056;50.330;7.914;2024-01-06T16:34:32;4.50;;;3.33;;
64643;SDS011;51056;50.330;7.914;2024-01-06T16:37:37;6.25;;;3.20;;
64643;SDS011;51056;50.330;7.914;2024-01-06T16:40:40;4.82;;;3.38;;
64643;SDS011;51056;50.330;7.914;2024-01-06T16:43:46;5.78;;;4.32;;
64643;SDS011;51056;50.330;7.914;2024-01-06T16:46:50;8.15;;;6.15;;
64643;SDS011;51056;50.330;7.914;2024-01-06T16:49:53;7.47;;;4.63;;
64643;SDS011;51056;50.330;7.914;2024-01-06T16:52:57;5.88;;;4.20;;
64643;SDS011;51056;50.330;7.914;2024-01-06T16:56:02;5.70;;;4.43;;
64643;SDS011;51056;50.330;7.914;2024-01-06T16:59:07;6.50;;;4.20;;
64643;SDS011;51056;50.330;7.914;2024-01-06T17:02:11;7.57;;;4.40;;
64643;SDS011;51056;50.330;7.914;2024-01-06T17:05:14;5.07;;;3.58;;
64643;SDS011;51056;50.330;7.914;2024-01-06T17:08:17;4.85;;;3.78;;
64643;SDS011;51056;50.330;7.914;2024-01-06T17:11:20;4.68;;;3.45;;
64643;SDS011;51056;50.330;7.914;2024-01-06T17:14:25;5.40;;;3.35;;
64643;SDS011;51056;50.330;7.914;2024-01-06T17:17:28;4.65;;;3.40;;
64643;SDS011;51056;50.330;7.914;2024-01-06T17:20:33;6.68;;;3.63;;
64643;SDS011;51056;50.330;7.914;2024-01-06T17:23:41;5.93;;;4.38;;
64643;SDS011;51056;50.330;7.914;2024-01-06T17:26:50;7.22;;;4.93;;
64643;SDS011;51056;50.330;7.914;2024-01-06T17:29:54;6.43;;;4.40;;
64643;SDS011;51056;50.330;7.914;2024-01-06T17:36:01;7.70;;;4.32;;
64643;SDS011;51056;50.330;7.914;2024-01-06T17:39:05;6.15;;;4.78;;
64643;SDS011;51056;50.330;7.914;2024-01-06T17:42:09;6.38;;;4.47;;
64643;SDS011;51056;50.330;7.914;2024-01-06T17:48:15;7.32;;;3.83;;
64643;SDS011;51056;50.330;7.914;2024-01-06T17:51:19;10.63;;;7.30;;
64643;SDS011;51056;50.330;7.914;2024-01-06T17:54:24;10.80;;;6.43;;
64643;SDS011;51056;50.330;7.914;2024-01-06T17:57:28;8.27;;;6.43;;
64643;SDS011;51056;50.330;7.914;2024-01-06T18:00:37;7.40;;;5.15;;
64643;SDS011;51056;50.330;7.914;2024-01-06T18:03:40;7.28;;;5.15;;
64643;SDS011;51056;50.330;7.914;2024-01-06T18:06:43;7.97;;;5.05;;
64643;SDS011;51056;50.330;7.914;2024-01-06T18:12:50;6.80;;;4.93;;
64643;SDS011;51056;50.330;7.914;2024-01-06T18:18:56;7.07;;;4.88;;
64643;SDS011;51056;50.330;7.914;2024-01-06T18:25:02;5.93;;;4.18;;
64643;SDS011;51056;50.330;7.914;2024-01-06T18:28:05;7.35;;;5.18;;
64643;SDS011;51056;50.330;7.914;2024-01-06T18:31:09;9.50;;;5.97;;
64643;SDS011;51056;50.330;7.914;2024-01-06T18:37:16;8.38;;;5.05;;
64643;SDS011;51056;50.330;7.914;2024-01-06T18:40:19;5.85;;;4.15;;
64643;SDS011;51056;50.330;7.914;2024-01-06T18:43:23;6.38;;;4.80;;
64643;SDS011;51056;50.330;7.914;2024-01-06T18:49:30;11.75;;;8.30;;
64643;SDS011;51056;50.330;7.914;2024-01-06T18:52:34;6.97;;;5.88;;
64643;SDS011;51056;50.330;7.914;2024-01-06T18:55:37;7.35;;;6.15;;
64643;SDS011;51056;50.330;7.914;2024-01-06T18:58:41;7.88;;;6.60;;
64643;SDS011;51056;50.330;7.914;2024-01-06T19:04:47;14.23;;;10.20;;
64643;SDS011;51056;50.330;7.914;2024-01-06T19:11:58;17.85;;;11.77;;
64643;SDS011;51056;50.330;7.914;2024-01-06T19:15:01;10.48;;;8.35;;
64643;SDS011;51056;50.330;7.914;2024-01-06T19:18:05;11.13;;;9.80;;
64643;SDS011;51056;50.330;7.914;2024-01-06T19:21:12;13.20;;;10.55;;
64643;SDS011;51056;50.330;7.914;2024-01-06T19:24:19;12.65;;;10.18;;
64643;SDS011;51056;50.330;7.914;2024-01-06T19:27:28;17.70;;;13.63;;
64643;SDS011;51056;50.330;7.914;2024-01-06T19:30:34;12.95;;;9.85;;
64643;SDS011;51056;50.330;7.914;2024-01-06T19:33:37;10.25;;;8.52;;
64643;SDS011;51056;50.330;7.914;2024-01-06T19:39:44;12.03;;;9.37;;
64643;SDS011;51056;50.330;7.914;2024-01-06T19:45:53;12.02;;;9.13;;
64643;SDS011;51056;50.330;7.914;2024-01-06T19:48:59;12.55;;;10.23;;
64643;SDS011;51056;50.330;7.914;2024-01-06T19:52:05;13.10;;;10.70;;
64643;SDS011;51056;50.330;7.914;2024-01-06T19:55:11;12.75;;;10.05;;
64643;SDS011;51056;50.330;7.914;2024-01-06T20:01:25;11.05;;;8.98;;
64643;SDS011;51056;50.330;7.914;2024-01-06T20:04:35;11.38;;;9.40;;
64643;SDS011;51056;50.330;7.914;2024-01-06T20:07:39;12.98;;;10.70;;
64643;SDS011;51056;50.330;7.914;2024-01-06T20:10:42;13.15;;;9.57;;
64643;SDS011;51056;50.330;7.914;2024-01-06T20:16:54;22.25;;;13.77;;
64643;SDS011;51056;50.330;7.914;2024-01-06T20:20:27;41.22;;;21.42;;
64643;SDS011;51056;50.330;7.914;2024-01-06T20:23:37;12.00;;;8.93;;
64643;SDS011;51056;50.330;7.914;2024-01-06T20:26:42;11.13;;;7.82;;
64643;SDS011;51056;50.330;7.914;2024-01-06T20:29:53;9.57;;;7.25;;
64643;SDS011;51056;50.330;7.914;2024-01-06T20:32:57;7.80;;;6.38;;
64643;SDS011;51056;50.330;7.914;2024-01-06T20:39:33;8.88;;;5.88;;
64643;SDS011;51056;50.330;7.914;2024-01-06T20:46:15;6.88;;;5.80;;
64643;SDS011;51056;50.330;7.914;2024-01-06T20:49:31;6.53;;;5.03;;
64643;SDS011;51056;50.330;7.914;2024-01-06T20:52:40;7.95;;;6.05;;
64643;SDS011;51056;50.330;7.914;2024-01-06T20:55:45;7.05;;;5.25;;
64643;SDS011;51056;50.330;7.914;2024-01-06T20:58:49;7.13;;;5.18;;
64643;SDS011;51056;50.330;7.914;2024-01-06T21:01:55;6.72;;;5.45;;
64643;SDS011;51056;50.330;7.914;2024-01-06T21:04:58;7.10;;;5.43;;
64643;SDS011;51056;50.330;7.914;2024-01-06T21:08:06;6.95;;;4.88;;
64643;SDS011;51056;50.330;7.914;2024-01-06T21:11:09;6.85;;;5.55;;
64643;SDS011;51056;50.330;7.914;2024-01-06T21:14:13;6.43;;;4.72;;
64643;SDS011;51056;50.330;7.914;2024-01-06T21:17:16;5.88;;;4.45;;
64643;SDS011;51056;50.330;7.914;2024-01-06T21:20:25;7.32;;;4.47;;
64643;SDS011;51056;50.330;7.914;2024-01-06T21:23:29;6.95;;;4.60;;
64643;SDS011;51056;50.330;7.914;2024-01-06T21:30:09;7.85;;;4.90;;
64643;SDS011;51056;50.330;7.914;2024-01-06T21:33:16;5.07;;;4.03;;
64643;SDS011;51056;50.330;7.914;2024-01-06T21:36:21;5.13;;;3.97;;
64643;SDS011;51056;50.330;7.914;2024-01-06T21:39:24;7.88;;;5.45;;
64643;SDS011;51056;50.330;7.914;2024-01-06T21:42:28;6.75;;;4.90;;
64643;SDS011;51056;50.330;7.914;2024-01-06T21:45:32;7.50;;;4.75;;
64643;SDS011;51056;50.330;7.914;2024-01-06T21:48:36;6.32;;;4.70;;
64643;SDS011;51056;50.330;7.914;2024-01-06T21:51:50;6.25;;;5.03;;
64643;SDS011;51056;50.330;7.914;2024-01-06T21:54:56;6.57;;;5.07;;
64643;SDS011;51056;50.330;7.914;2024-01-06T21:58:00;6.90;;;5.50;;
64643;SDS011;51056;50.330;7.914;2024-01-06T22:01:04;7.28;;;5.70;;
64643;SDS011;51056;50.330;7.914;2024-01-06T22:04:08;6.95;;;4.97;;
64643;SDS011;51056;50.330;7.914;2024-01-06T22:07:15;7.30;;;5.18;;
64643;SDS011;51056;50.330;7.914;2024-01-06T22:10:18;6.85;;;5.32;;
64643;SDS011;51056;50.330;7.914;2024-01-06T22:16:25;7.07;;;6.03;;
64643;SDS011;51056;50.330;7.914;2024-01-06T22:19:28;7.05;;;5.65;;
64643;SDS011;51056;50.330;7.914;2024-01-06T22:25:35;9.60;;;6.18;;
64643;SDS011;51056;50.330;7.914;2024-01-06T22:31:42;7.80;;;6.10;;
64643;SDS011;51056;50.330;7.914;2024-01-06T22:34:45;8.52;;;6.80;;
64643;SDS011;51056;50.330;7.914;2024-01-06T22:37:49;8.13;;;6.05;;
64643;SDS011;51056;50.330;7.914;2024-01-06T22:43:56;9.18;;;7.03;;
64643;SDS011;51056;50.330;7.914;2024-01-06T22:46:59;8.93;;;6.40;;
64643;SDS011;51056;50.330;7.914;2024-01-06T22:50:03;7.60;;;5.90;;
64643;SDS011;51056;50.330;7.914;2024-01-06T22:53:08;7.53;;;6.15;;
64643;SDS011;51056;50.330;7.914;2024-01-06T22:56:12;8.70;;;6.90;;
64643;SDS011;51056;50.330;7.914;2024-01-06T22:59:16;8.23;;;6.50;;
64643;SDS011;51056;50.330;7.914;2024-01-06T23:02:19;9.73;;;6.93;;
64643;SDS011;51056;50.330;7.914;2024-01-06T23:05:23;9.35;;;6.70;;
64643;SDS011;51056;50.330;7.914;2024-01-06T23:08:27;6.07;;;4.88;;
64643;SDS011;51056;50.330;7.914;2024-01-06T23:11:31;10.23;;;6.97;;